Time;durP1;ratioP1;P1;durP2;ratioP2;P2;SDS_P1;SDS_P2;PMS_P1;PMS_P2;Temp;Humidity;BMP_temperature;BMP_pressure;BME280_temperature;BME280_humidity;BME280_pressure;Samples;Min_cycle;Max_cycle;Signal;HPM_P1;HPM_P2
2022/05/03 00:00:06;;;;;;;17.33;15.30;;;14.60;67.00;;;;;;4943499;28;20050;-76
2022/05/03 00:02:53;;;;;;;16.55;14.82;;;14.60;66.90;;;;;;4920568;29;20032;-76
2022/05/03 00:06:03;;;;;;;17.88;16.08;;;14.60;67.60;;;;;;4921589;29;20027;-76
2022/05/03 00:08:42;;;;;;;17.40;15.68;;;14.60;67.20;;;;;;4923158;29;20137;-75
2022/05/03 00:11:24;;;;;;;17.77;16.08;;;14.60;67.10;;;;;;4929894;29;20383;-75
2022/05/03 00:14:00;;;;;;;17.95;15.98;;;14.60;67.20;;;;;;4926100;29;20039;-74
2022/05/03 00:16:26;;;;;;;18.00;16.02;;;14.60;67.20;;;;;;4930307;29;20460;-76
2022/05/03 00:18:52;;;;;;;20.70;16.90;;;14.50;67.00;;;;;;4926757;29;20028;-75
2022/05/03 00:21:19;;;;;;;19.02;17.10;;;14.50;67.00;;;;;;4930283;29;20060;-75
2022/05/03 00:23:45;;;;;;;18.05;16.10;;;14.50;67.10;;;;;;4932188;29;20123;-74
2022/05/03 00:26:11;;;;;;;20.88;16.48;;;14.40;67.00;;;;;;4930593;29;20122;-74
2022/05/03 00:28:38;;;;;;;19.17;17.20;;;14.50;67.20;;;;;;4926289;29;20486;-75
2022/05/03 00:31:07;;;;;;;19.30;17.20;;;14.40;67.10;;;;;;4922960;29;20070;-74
2022/05/03 00:33:34;;;;;;;19.02;17.13;;;14.40;67.10;;;;;;4934058;29;20028;-74
2022/05/03 00:36:00;;;;;;;19.88;17.75;;;14.40;67.20;;;;;;4930557;29;20042;-74
2022/05/03 00:38:26;;;;;;;19.98;17.70;;;14.40;67.20;;;;;;4930517;29;20040;-75
2022/05/03 00:41:00;;;;;;;19.48;17.48;;;14.40;67.80;;;;;;4926699;29;20024;-74
2022/05/03 00:43:38;;;;;;;20.35;18.15;;;14.40;67.40;;;;;;4930790;29;20109;-75
2022/05/03 00:46:15;;;;;;;20.85;18.75;;;14.40;67.40;;;;;;4941702;29;20021;-74
2022/05/03 00:49:00;;;;;;;19.27;17.15;;;14.30;67.30;;;;;;4949244;29;20088;-75
2022/05/03 00:51:38;;;;;;;20.05;17.67;;;14.30;67.30;;;;;;4952071;29;20046;-75
2022/05/03 00:54:50;;;;;;;18.98;16.45;;;14.30;67.30;;;;;;4944417;29;20066;-75
2022/05/03 00:57:44;;;;;;;18.63;16.67;;;14.30;67.40;;;;;;4946885;29;20823;-75
2022/05/03 01:00:14;;;;;;;19.40;17.40;;;14.30;67.40;;;;;;4945866;29;20034;-75
2022/05/03 01:02:57;;;;;;;17.58;15.77;;;14.30;67.30;;;;;;4952792;29;20091;-75
2022/05/03 01:05:48;;;;;;;19.52;17.13;;;14.30;67.50;;;;;;4963140;28;20112;-75
2022/05/03 01:08:54;;;;;;;18.58;16.58;;;14.30;67.40;;;;;;4917186;29;20047;-75
2022/05/03 01:11:59;;;;;;;18.73;16.73;;;14.30;67.50;;;;;;4912736;29;20043;-75
2022/05/03 01:14:58;;;;;;;18.77;16.83;;;14.30;67.50;;;;;;4926916;29;20087;-75
2022/05/03 01:17:42;;;;;;;20.25;16.25;;;14.20;67.30;;;;;;4906093;29;20107;-76
2022/05/03 01:20:10;;;;;;;18.00;16.05;;;14.20;67.30;;;;;;4927015;29;20032;-75
2022/05/03 01:23:00;;;;;;;18.35;16.45;;;14.20;67.30;;;;;;4934974;29;20121;-75
2022/05/03 01:25:49;;;;;;;18.83;16.83;;;14.20;67.40;;;;;;4931517;29;20067;-76
2022/05/03 01:28:15;;;;;;;18.40;16.50;;;14.10;67.20;;;;;;4927693;29;20043;-75
2022/05/03 01:30:47;;;;;;;18.52;16.50;;;14.10;67.30;;;;;;4914507;29;20042;-75
2022/05/03 01:33:17;;;;;;;19.98;16.00;;;14.10;67.30;;;;;;4929254;29;20032;-76
2022/05/03 01:35:46;;;;;;;17.80;15.82;;;14.10;67.40;;;;;;4920786;29;20056;-75
2022/05/03 01:38:15;;;;;;;18.65;16.73;;;14.10;67.40;;;;;;4914635;29;20032;-75
2022/05/03 01:40:59;;;;;;;18.88;16.88;;;14.10;67.50;;;;;;4930026;29;20031;-75
2022/05/03 01:43:47;;;;;;;18.83;16.08;;;14.00;67.40;;;;;;4916577;29;20050;-75
2022/05/03 01:46:20;;;;;;;19.40;17.33;;;14.00;67.50;;;;;;4926443;29;20040;-75
2022/05/03 01:52:27;;;;;;;17.65;15.77;;;14.00;67.50;;;;;;4914076;29;20535;-75
2022/05/03 01:55:08;;;;;;;18.65;16.65;;;14.00;67.60;;;;;;4932529;29;20119;-75
2022/05/03 01:58:11;;;;;;;18.40;16.42;;;14.00;67.50;;;;;;4930654;29;20048;-75
2022/05/03 02:00:37;;;;;;;17.63;15.55;;;14.00;67.60;;;;;;4944079;29;20035;-76
2022/05/03 02:03:22;;;;;;;19.05;15.32;;;13.90;67.30;;;;;;4930930;29;20023;-75
2022/05/03 02:06:02;;;;;;;18.75;16.75;;;13.90;67.50;;;;;;4931789;29;20448;-76
2022/05/03 02:08:41;;;;;;;18.67;16.67;;;13.90;67.60;;;;;;4927201;29;20028;-75
2022/05/03 02:11:22;;;;;;;17.77;15.88;;;13.80;67.40;;;;;;4928298;29;20035;-76
2022/05/03 02:16:49;;;;;;;19.58;16.77;;;13.80;67.50;;;;;;4927084;29;20055;-75
2022/05/03 02:19:14;;;;;;;18.60;16.58;;;13.70;67.30;;;;;;4924151;29;20103;-76
2022/05/03 02:21:51;;;;;;;18.55;15.57;;;13.70;67.30;;;;;;4953806;29;20060;-75
2022/05/03 02:24:32;;;;;;;17.10;15.15;;;13.70;67.50;;;;;;4956481;28;20153;-76
2022/05/03 02:27:11;;;;;;;18.00;16.10;;;13.70;67.50;;;;;;4948265;29;20099;-76
2022/05/03 02:29:48;;;;;;;19.00;16.92;;;13.60;67.10;;;;;;4952637;29;20087;-76
2022/05/03 02:32:42;;;;;;;18.27;16.38;;;13.60;67.50;;;;;;4941427;29;20126;-76
2022/05/03 02:35:16;;;;;;;18.48;16.48;;;13.60;67.50;;;;;;4934875;29;20043;-75
2022/05/03 02:37:57;;;;;;;19.75;17.17;;;13.60;68.00;;;;;;4932507;29;20698;-75
2022/05/03 02:40:27;;;;;;;18.13;16.25;;;13.60;67.60;;;;;;4920552;29;20070;-75
2022/05/03 02:42:55;;;;;;;17.30;15.15;;;13.60;67.50;;;;;;4932794;29;21034;-75
2022/05/03 02:45:21;;;;;;;18.10;16.20;;;13.60;67.60;;;;;;4930616;29;20384;-74
2022/05/03 02:48:15;;;;;;;17.52;15.65;;;13.50;67.50;;;;;;4921933;29;20103;-75
2022/05/03 02:51:03;;;;;;;16.23;14.52;;;13.50;67.60;;;;;;4926945;29;20039;-75
2022/05/03 02:53:54;;;;;;;18.05;15.40;;;13.50;67.60;;;;;;4930305;29;20106;-75
2022/05/03 02:56:27;;;;;;;16.45;14.75;;;13.50;67.60;;;;;;4937657;29;20082;-74
2022/05/03 02:59:17;;;;;;;17.00;14.60;;;13.50;67.50;;;;;;4920646;29;20032;-75
2022/05/03 03:01:49;;;;;;;17.30;15.38;;;13.50;67.60;;;;;;4930701;29;20031;-74
2022/05/03 03:04:44;;;;;;;18.27;16.30;;;13.50;67.50;;;;;;4930694;29;20453;-75
2022/05/03 03:07:18;;;;;;;15.45;13.40;;;13.50;67.60;;;;;;4929260;29;20037;-74
2022/05/03 03:09:49;;;;;;;16.73;14.95;;;13.40;67.40;;;;;;4923221;29;20039;-74
2022/05/03 03:12:15;;;;;;;16.48;14.77;;;13.40;67.40;;;;;;4936648;29;20176;-74
2022/05/03 03:14:47;;;;;;;16.70;14.93;;;13.40;67.50;;;;;;4929169;29;20102;-74
2022/05/03 03:17:20;;;;;;;16.70;15.02;;;13.40;67.50;;;;;;4929687;29;20039;-74
2022/05/03 03:19:56;;;;;;;16.98;15.18;;;13.40;67.60;;;;;;4929831;29;20059;-74
2022/05/03 03:22:23;;;;;;;17.55;15.65;;;13.40;67.50;;;;;;4927444;29;20048;-76
2022/05/03 03:24:51;;;;;;;19.27;17.08;;;13.40;67.60;;;;;;4927979;29;20028;-74
2022/05/03 03:27:21;;;;;;;17.67;15.68;;;13.30;67.40;;;;;;4931420;28;20023;-74
2022/05/03 03:29:51;;;;;;;17.83;15.93;;;13.30;67.50;;;;;;4929898;29;20027;-75
2022/05/03 03:32:18;;;;;;;17.05;15.18;;;13.30;68.10;;;;;;4930745;29;20028;-74
2022/05/03 03:34:49;;;;;;;18.88;15.07;;;13.30;67.60;;;;;;4930395;29;20031;-75
2022/05/03 03:37:16;;;;;;;17.95;15.88;;;13.30;67.60;;;;;;4921197;29;20036;-75
2022/05/03 03:39:41;;;;;;;18.75;16.75;;;13.30;67.60;;;;;;4927980;29;20023;-75
2022/05/03 03:42:08;;;;;;;18.95;17.00;;;13.30;67.70;;;;;;4928804;29;20407;-76
2022/05/03 03:44:34;;;;;;;18.25;15.98;;;13.20;67.60;;;;;;4929471;29;20551;-75
2022/05/03 03:47:02;;;;;;;17.70;15.88;;;13.30;67.80;;;;;;4930604;29;20094;-76
2022/05/03 03:49:29;;;;;;;21.63;18.25;;;13.20;67.60;;;;;;4915822;29;20531;-76
2022/05/03 03:52:07;;;;;;;19.15;15.95;;;13.20;67.60;;;;;;4923617;29;20424;-75
2022/05/03 03:54:34;;;;;;;19.50;17.40;;;13.30;67.80;;;;;;4930499;29;20027;-75
2022/05/03 03:57:01;;;;;;;18.48;16.52;;;13.30;67.80;;;;;;4930509;29;20079;-75
2022/05/03 03:59:30;;;;;;;17.77;15.88;;;13.20;67.60;;;;;;4928914;29;20105;-75
2022/05/03 04:01:58;;;;;;;16.65;14.82;;;13.30;67.80;;;;;;4928252;29;20617;-75
2022/05/03 04:04:28;;;;;;;18.92;16.67;;;13.30;67.80;;;;;;4923379;29;20584;-75
2022/05/03 04:06:54;;;;;;;18.58;15.13;;;13.30;67.80;;;;;;4929974;29;20695;-75
2022/05/03 04:09:20;;;;;;;19.15;16.70;;;13.20;67.60;;;;;;4933175;29;20043;-74
2022/05/03 04:11:47;;;;;;;17.02;15.23;;;13.20;67.60;;;;;;4932127;29;20083;-74
2022/05/03 04:14:14;;;;;;;19.08;16.95;;;13.20;67.60;;;;;;4931947;29;20035;-75
2022/05/03 04:16:41;;;;;;;18.02;16.05;;;13.20;67.60;;;;;;4931496;29;20438;-74
2022/05/03 04:19:07;;;;;;;18.23;16.30;;;13.20;67.70;;;;;;4931844;29;20082;-75
2022/05/03 04:21:33;;;;;;;18.55;16.38;;;13.20;67.70;;;;;;4931701;29;20554;-74
2022/05/03 04:23:59;;;;;;;18.27;16.38;;;13.20;67.80;;;;;;4943229;29;20027;-74
2022/05/03 04:26:26;;;;;;;18.10;15.98;;;13.20;67.80;;;;;;4929808;29;20032;-74
2022/05/03 04:29:00;;;;;;;17.73;15.82;;;13.20;67.80;;;;;;4921691;29;20028;-74
2022/05/03 04:31:26;;;;;;;19.75;16.15;;;13.20;68.00;;;;;;4928089;29;20487;-74
2022/05/03 04:33:55;;;;;;;17.88;15.43;;;13.20;67.90;;;;;;4930992;29;20058;-75
2022/05/03 04:36:22;;;;;;;18.05;15.32;;;13.10;67.80;;;;;;4931172;29;20171;-75
2022/05/03 04:38:52;;;;;;;18.30;16.17;;;13.10;67.80;;;;;;4933052;29;20028;-75
2022/05/03 04:41:24;;;;;;;18.52;16.52;;;13.10;67.90;;;;;;4936325;29;20071;-75
2022/05/03 04:43:51;;;;;;;16.92;15.13;;;13.20;68.00;;;;;;4935261;29;20095;-73
2022/05/03 04:46:17;;;;;;;18.35;16.48;;;13.10;68.40;;;;;;4933510;29;20067;-76
2022/05/03 04:48:43;;;;;;;16.95;15.13;;;13.10;67.80;;;;;;4930218;29;20519;-75
2022/05/03 04:51:25;;;;;;;16.63;14.73;;;13.20;68.00;;;;;;4930630;29;20091;-75
2022/05/03 04:53:52;;;;;;;17.05;15.25;;;13.20;68.20;;;;;;4932892;29;20047;-75
2022/05/03 04:56:23;;;;;;;17.35;15.55;;;13.10;67.90;;;;;;4928176;29;20039;-75
2022/05/03 04:58:51;;;;;;;18.20;16.25;;;13.20;68.10;;;;;;4930400;29;20032;-75
2022/05/03 05:01:19;;;;;;;18.95;16.83;;;13.20;68.00;;;;;;4931018;29;20019;-76
2022/05/03 05:03:45;;;;;;;16.40;14.70;;;13.20;68.00;;;;;;4930208;29;20349;-77
2022/05/03 05:06:11;;;;;;;16.95;15.15;;;13.20;68.00;;;;;;4929843;29;20027;-75
2022/05/03 05:08:38;;;;;;;21.05;16.10;;;13.20;68.00;;;;;;4924108;29;20032;-73
2022/05/03 05:11:04;;;;;;;19.35;16.65;;;13.20;68.00;;;;;;4927855;29;20027;-74
2022/05/03 05:13:33;;;;;;;18.40;16.42;;;13.20;68.00;;;;;;4928752;29;20425;-75
2022/05/03 05:15:59;;;;;;;18.83;16.80;;;13.30;68.20;;;;;;4920651;29;20150;-75
2022/05/03 05:18:27;;;;;;;19.27;16.20;;;13.30;68.20;;;;;;4927729;29;20042;-76
2022/05/03 05:20:54;;;;;;;17.77;15.88;;;13.20;68.00;;;;;;4932374;29;20390;-78
2022/05/03 05:23:21;;;;;;;19.88;16.45;;;13.30;68.20;;;;;;4924711;29;20036;-80
2022/05/03 05:25:47;;;;;;;18.27;16.38;;;13.20;68.00;;;;;;4926587;29;20444;-80
2022/05/03 05:28:14;;;;;;;19.00;16.10;;;13.30;68.20;;;;;;4926030;29;20027;-81
2022/05/03 05:30:41;;;;;;;17.85;15.95;;;13.30;68.20;;;;;;4924061;29;20506;-79
2022/05/03 05:33:07;;;;;;;19.75;17.25;;;13.30;68.20;;;;;;4919152;29;20095;-77
2022/05/03 05:35:35;;;;;;;18.17;16.13;;;13.30;68.20;;;;;;4927715;29;20111;-77
2022/05/03 05:38:02;;;;;;;19.52;16.15;;;13.30;68.20;;;;;;4923351;29;20517;-80
2022/05/03 05:40:28;;;;;;;19.05;15.88;;;13.30;68.20;;;;;;4929877;29;20047;-91
2022/05/03 05:42:54;;;;;;;21.17;17.17;;;13.40;68.30;;;;;;4923531;29;20035;-82
2022/05/03 05:45:23;;;;;;;21.85;18.15;;;13.40;68.30;;;;;;4928699;29;20027;-80
2022/05/03 05:47:48;;;;;;;19.00;16.50;;;13.40;68.30;;;;;;4929758;29;20051;-85
2022/05/03 05:50:14;;;;;;;20.92;18.73;;;13.40;68.30;;;;;;4925012;29;20090;-87
2022/05/03 05:55:25;;;;;;;20.80;17.92;;;13.50;68.50;;;;;;4922090;29;20020;-86
2022/05/03 05:57:50;;;;;;;22.17;19.50;;;13.50;68.40;;;;;;4928643;29;20044;-85
2022/05/03 06:00:17;;;;;;;22.35;18.58;;;13.50;68.30;;;;;;4938732;28;20012;-78
2022/05/03 06:02:43;;;;;;;20.27;18.08;;;13.60;68.50;;;;;;4953510;28;21238;-83
2022/05/03 06:05:09;;;;;;;20.63;17.65;;;13.60;68.70;;;;;;4953422;28;20186;-85
2022/05/03 06:07:35;;;;;;;20.15;17.98;;;13.60;69.10;;;;;;4927588;29;20067;-78
2022/05/03 06:10:01;;;;;;;21.50;18.88;;;13.70;69.40;;;;;;4944059;29;20096;-77
2022/05/03 06:12:26;;;;;;;23.15;19.42;;;13.70;69.40;;;;;;4924550;29;20493;-77
2022/05/03 06:14:52;;;;;;;21.48;18.52;;;13.80;69.50;;;;;;4931048;29;20552;-82
2022/05/03 06:17:18;;;;;;;20.13;18.00;;;13.80;69.40;;;;;;4931110;29;20498;-81
2022/05/03 06:19:45;;;;;;;21.20;18.65;;;13.80;69.40;;;;;;4927871;29;20039;-80
2022/05/03 06:22:11;;;;;;;22.23;19.83;;;13.80;69.40;;;;;;4929518;29;20028;-80
2022/05/03 06:24:38;;;;;;;21.63;19.23;;;13.90;69.50;;;;;;4925824;29;20025;-80
2022/05/03 06:27:04;;;;;;;22.88;19.25;;;13.90;69.50;;;;;;4924300;29;20074;-84
2022/05/03 06:29:32;;;;;;;23.10;19.52;;;13.90;69.40;;;;;;4923433;29;20050;-84
2022/05/03 06:31:59;;;;;;;24.00;20.00;;;13.90;69.40;;;;;;4921420;29;20142;-83
2022/05/03 06:34:26;;;;;;;23.23;20.48;;;13.90;69.30;;;;;;4915189;29;20734;-82
2022/05/03 06:36:52;;;;;;;23.55;20.27;;;14.00;69.40;;;;;;4921797;29;20468;-80
2022/05/03 06:39:18;;;;;;;24.27;21.20;;;14.00;69.40;;;;;;4918479;29;20095;-79
2022/05/03 06:41:44;;;;;;;26.48;22.30;;;14.00;69.30;;;;;;4928288;29;20035;-79
2022/05/03 06:44:13;;;;;;;24.63;22.08;;;14.10;69.40;;;;;;4907407;29;20116;-80
2022/05/03 06:46:39;;;;;;;24.02;20.58;;;14.10;69.30;;;;;;4921639;29;20062;-79
2022/05/03 06:49:05;;;;;;;25.20;22.00;;;14.20;69.30;;;;;;4917941;29;20365;-87
2022/05/03 06:51:33;;;;;;;24.80;21.30;;;14.20;69.20;;;;;;4926918;29;20119;-85
2022/05/03 06:54:00;;;;;;;25.45;22.75;;;14.30;69.30;;;;;;4922251;29;20538;-83
2022/05/03 06:56:26;;;;;;;26.60;23.70;;;14.30;69.20;;;;;;4928133;29;20070;-84
2022/05/03 06:58:52;;;;;;;25.60;22.90;;;14.40;69.20;;;;;;4929577;29;20085;-82
2022/05/03 07:01:19;;;;;;;25.90;22.50;;;14.40;69.10;;;;;;4930080;29;20046;-90
2022/05/03 07:03:45;;;;;;;26.85;23.92;;;14.50;69.20;;;;;;4928171;29;20484;-84
2022/05/03 07:06:11;;;;;;;28.42;23.23;;;14.60;69.20;;;;;;4927876;29;20102;-84
2022/05/03 07:08:38;;;;;;;26.27;23.45;;;14.60;69.10;;;;;;4922230;29;20436;-83
2022/05/03 07:11:04;;;;;;;26.98;23.75;;;14.70;69.20;;;;;;4918190;29;20139;-82
2022/05/03 07:13:30;;;;;;;25.67;22.77;;;14.80;69.20;;;;;;4902987;29;20123;-82
2022/05/03 07:15:57;;;;;;;26.35;23.55;;;14.90;69.30;;;;;;4927869;29;20042;-79
2022/05/03 07:23:53;;;;;;;25.05;22.40;;;15.00;69.00;;;;;;4923026;29;20492;-82
2022/05/03 07:26:21;;;;;;;28.42;22.88;;;15.10;69.00;;;;;;4921756;29;20086;-81
2022/05/03 07:28:49;;;;;;;26.63;23.92;;;15.10;68.90;;;;;;4927617;29;20130;-81
2022/05/03 07:31:19;;;;;;;27.10;22.42;;;15.30;69.10;;;;;;4916235;29;20289;-81
2022/05/03 07:33:46;;;;;;;27.40;24.40;;;15.30;69.00;;;;;;4917914;29;20028;-81
2022/05/03 07:36:12;;;;;;;28.75;24.20;;;15.40;69.10;;;;;;4927348;29;20790;-81
2022/05/03 07:38:38;;;;;;;24.63;21.95;;;15.40;68.90;;;;;;4926019;29;20419;-79
2022/05/03 07:41:06;;;;;;;28.08;24.08;;;15.50;68.90;;;;;;4928406;29;20028;-80
2022/05/03 07:43:32;;;;;;;26.20;23.38;;;15.50;68.80;;;;;;4924610;29;20028;-85
2022/05/03 07:45:58;;;;;;;26.00;23.20;;;15.60;68.80;;;;;;4927893;29;20054;-78
2022/05/03 07:48:24;;;;;;;25.65;22.90;;;15.60;68.60;;;;;;4925518;29;20678;-78
2022/05/03 07:50:50;;;;;;;27.90;24.35;;;15.70;68.60;;;;;;4933369;29;20035;-84
2022/05/03 07:53:17;;;;;;;26.15;23.17;;;15.80;68.60;;;;;;4909506;29;20072;-81
2022/05/03 07:55:46;;;;;;;25.33;22.35;;;15.80;68.50;;;;;;4921997;29;20036;-86
2022/05/03 07:58:13;;;;;;;26.00;23.27;;;15.90;68.40;;;;;;4930150;29;20035;-87
2022/05/03 08:00:39;;;;;;;25.77;22.77;;;15.90;68.30;;;;;;4928248;29;20028;-79
2022/05/03 08:03:05;;;;;;;25.70;23.00;;;16.00;68.30;;;;;;4931406;29;20038;-79
2022/05/03 08:05:31;;;;;;;26.92;24.27;;;16.00;68.10;;;;;;4939618;28;20114;-79
2022/05/03 08:07:57;;;;;;;25.80;23.13;;;16.00;67.90;;;;;;4924417;29;20035;-81
2022/05/03 08:10:23;;;;;;;26.17;23.38;;;16.10;68.00;;;;;;4918781;29;20035;-81
2022/05/03 08:12:52;;;;;;;27.10;24.35;;;16.20;68.00;;;;;;4928695;29;20306;-81
2022/05/03 08:15:20;;;;;;;24.65;22.15;;;16.30;67.90;;;;;;4930448;29;20032;-79
2022/05/03 08:17:46;;;;;;;25.38;22.75;;;16.30;67.70;;;;;;4931520;29;20102;-87
2022/05/03 08:20:15;;;;;;;25.95;23.27;;;16.30;67.50;;;;;;4922959;29;20060;-78
2022/05/03 08:22:42;;;;;;;28.88;23.48;;;16.40;67.50;;;;;;4937641;29;20028;-78
2022/05/03 08:25:09;;;;;;;25.90;23.20;;;16.50;67.50;;;;;;4955007;29;20035;-85
2022/05/03 08:27:37;;;;;;;27.10;24.20;;;16.60;67.50;;;;;;4952871;29;20034;-81
2022/05/03 08:30:03;;;;;;;27.02;22.90;;;16.70;67.40;;;;;;4950517;28;20273;-82
2022/05/03 08:32:29;;;;;;;26.17;23.38;;;16.70;67.20;;;;;;4954817;28;20042;-78
2022/05/03 08:34:55;;;;;;;26.35;23.75;;;16.80;67.20;;;;;;4955441;28;20047;-78
2022/05/03 08:42:51;;;;;;;27.50;24.55;;;17.00;66.80;;;;;;4955370;28;20043;-78
2022/05/03 08:45:19;;;;;;;25.98;23.38;;;17.10;66.70;;;;;;4939925;28;20051;-79
2022/05/03 08:47:49;;;;;;;26.30;23.23;;;17.20;66.60;;;;;;4933730;29;20169;-76
2022/05/03 08:50:19;;;;;;;24.88;22.27;;;17.30;66.60;;;;;;4932956;29;20040;-77
2022/05/03 08:52:57;;;;;;;25.00;22.33;;;17.40;66.50;;;;;;4925731;29;20083;-88
2022/05/03 08:55:23;;;;;;;26.45;23.70;;;17.50;66.40;;;;;;4930061;29;20036;-83
2022/05/03 08:57:50;;;;;;;25.10;22.63;;;17.60;66.20;;;;;;4930035;29;20454;-79
2022/05/03 09:00:17;;;;;;;25.70;23.00;;;17.80;66.30;;;;;;4923235;29;20142;-78
2022/05/03 09:02:47;;;;;;;25.85;23.23;;;17.90;66.10;;;;;;4925084;29;20039;-80
2022/05/03 09:05:13;;;;;;;23.98;21.48;;;18.00;66.00;;;;;;4923550;29;20032;-77
2022/05/03 09:07:54;;;;;;;24.63;22.13;;;18.10;65.90;;;;;;4929861;29;20019;-78
2022/05/03 09:10:26;;;;;;;24.05;21.65;;;18.30;65.80;;;;;;4924936;29;20262;-79
2022/05/03 09:12:55;;;;;;;23.35;20.85;;;18.40;65.70;;;;;;4930693;29;20392;-77
2022/05/03 09:15:30;;;;;;;25.42;22.80;;;18.60;65.70;;;;;;4929358;29;20032;-78
2022/05/03 09:17:56;;;;;;;24.20;21.80;;;18.80;65.60;;;;;;4931053;29;20264;-79
2022/05/03 09:26:12;;;;;;;24.45;21.92;;;19.00;65.00;;;;;;4930214;29;20135;-77
2022/05/03 09:28:58;;;;;;;24.98;22.38;;;19.10;65.30;;;;;;4933556;29;20395;-77
2022/05/03 09:31:40;;;;;;;25.50;22.92;;;19.30;64.80;;;;;;4926072;29;20095;-78
2022/05/03 09:34:25;;;;;;;24.53;22.03;;;19.40;64.60;;;;;;4930883;29;20035;-78
2022/05/03 09:36:52;;;;;;;23.25;20.98;;;19.60;64.60;;;;;;4935042;29;20051;-78
2022/05/03 09:39:25;;;;;;;19.92;18.00;;;19.70;64.60;;;;;;4929062;29;20032;-75
2022/05/03 09:42:14;;;;;;;17.70;15.95;;;19.80;64.50;;;;;;4925105;29;20467;-79
2022/05/03 09:45:00;;;;;;;18.88;16.85;;;19.90;64.50;;;;;;4925806;29;20043;-80
2022/05/03 09:47:29;;;;;;;20.95;18.95;;;20.00;64.40;;;;;;4933126;29;20408;-80
2022/05/03 09:49:55;;;;;;;20.23;18.23;;;20.20;64.50;;;;;;4934143;29;20535;-78
2022/05/03 09:52:33;;;;;;;22.17;19.88;;;20.30;64.30;;;;;;4929992;29;20055;-78
2022/05/03 09:55:00;;;;;;;21.30;19.15;;;20.30;63.90;;;;;;4922787;29;20036;-79
2022/05/03 09:57:28;;;;;;;19.45;17.65;;;20.40;63.90;;;;;;4930204;29;20075;-78
2022/05/03 09:59:55;;;;;;;21.02;19.00;;;20.50;63.80;;;;;;4930673;29;20039;-78
2022/05/03 10:02:25;;;;;;;22.42;20.08;;;20.60;63.70;;;;;;4921520;29;20028;-79
2022/05/03 10:04:53;;;;;;;21.00;18.83;;;20.70;63.60;;;;;;4932344;29;20347;-79
2022/05/03 10:07:20;;;;;;;22.77;19.67;;;20.80;63.50;;;;;;4921833;29;20032;-77
2022/05/03 10:09:46;;;;;;;22.80;20.42;;;20.90;63.30;;;;;;4922958;29;20567;-78
2022/05/03 10:12:14;;;;;;;21.70;19.40;;;21.00;63.30;;;;;;4930041;29;20032;-78
2022/05/03 10:14:42;;;;;;;21.88;19.75;;;21.00;62.90;;;;;;4931021;29;20032;-78
2022/05/03 10:20:46;;;;;;;20.55;18.40;;;21.30;62.80;;;;;;4943991;29;20047;-78
2022/05/03 10:23:28;;;;;;;21.73;19.45;;;21.40;62.50;;;;;;4941301;28;20060;-77
2022/05/03 10:26:05;;;;;;;22.90;20.50;;;21.60;62.50;;;;;;4960483;28;20015;-77
2022/05/03 10:29:08;;;;;;;21.42;19.27;;;21.70;62.40;;;;;;4953683;28;20027;-77
2022/05/03 10:31:56;;;;;;;21.88;19.60;;;21.80;62.10;;;;;;4947958;28;20028;-77
2022/05/03 10:35:03;;;;;;;22.73;20.38;;;21.90;62.00;;;;;;4939399;29;20038;-75
2022/05/03 10:37:29;;;;;;;21.92;19.80;;;22.00;61.80;;;;;;4927449;29;20067;-78
2022/05/03 10:39:57;;;;;;;21.10;19.00;;;22.10;62.00;;;;;;4933752;29;20027;-80
2022/05/03 10:42:28;;;;;;;21.13;19.05;;;22.10;61.80;;;;;;4928964;29;20367;-76
2022/05/03 10:45:06;;;;;;;22.90;20.27;;;22.30;61.80;;;;;;4913839;29;20198;-77
2022/05/03 10:47:51;;;;;;;21.58;19.30;;;22.40;61.60;;;;;;4933726;29;20059;-78
2022/05/03 10:50:19;;;;;;;21.30;19.20;;;22.50;61.40;;;;;;4936744;29;20043;-75
2022/05/03 10:52:59;;;;;;;22.05;19.77;;;22.70;61.50;;;;;;4934932;29;20028;-78
2022/05/03 10:55:35;;;;;;;20.17;18.27;;;22.80;61.70;;;;;;4932621;29;20035;-77
2022/05/03 10:58:31;;;;;;;22.27;20.05;;;22.90;61.10;;;;;;4934290;29;20119;-83
2022/05/03 11:01:07;;;;;;;22.58;20.38;;;23.00;60.70;;;;;;4934102;29;20095;-79
2022/05/03 11:04:00;;;;;;;21.35;19.25;;;23.20;60.80;;;;;;4931166;29;20036;-79
2022/05/03 11:06:26;;;;;;;21.15;18.92;;;23.30;60.80;;;;;;4924311;29;20062;-76
2022/05/03 11:11:42;;;;;;;20.35;18.45;;;23.60;60.70;;;;;;4926924;29;20047;-76
2022/05/03 11:14:18;;;;;;;22.70;20.40;;;23.70;60.50;;;;;;4929553;29;20047;-77
2022/05/03 11:16:47;;;;;;;20.98;18.90;;;23.90;60.50;;;;;;4928779;29;20055;-77
2022/05/03 11:19:16;;;;;;;21.48;19.27;;;24.00;60.40;;;;;;4923782;29;20891;-77
2022/05/03 11:21:45;;;;;;;22.45;20.13;;;24.10;60.20;;;;;;4931584;29;20039;-77
2022/05/03 11:24:17;;;;;;;21.48;19.27;;;24.30;60.10;;;;;;4929913;29;20357;-77
2022/05/03 11:26:43;;;;;;;21.50;19.40;;;24.40;59.90;;;;;;4916384;29;20051;-77
2022/05/03 11:29:12;;;;;;;21.58;19.15;;;24.60;60.10;;;;;;4928318;29;20385;-77
2022/05/03 11:31:51;;;;;;;20.10;18.10;;;24.70;59.90;;;;;;4929476;29;20529;-78
2022/05/03 11:34:18;;;;;;;20.92;18.92;;;24.80;59.70;;;;;;4920476;29;20087;-78
2022/05/03 11:36:50;;;;;;;22.00;19.67;;;24.90;59.70;;;;;;4927046;29;20040;-77
2022/05/03 11:39:21;;;;;;;21.25;19.25;;;25.10;59.40;;;;;;4930473;28;20573;-77
2022/05/03 11:41:47;;;;;;;20.17;18.17;;;25.20;59.20;;;;;;4928653;29;20122;-76
2022/05/03 11:44:20;;;;;;;20.02;18.13;;;25.30;59.00;;;;;;4919598;29;20356;-76
2022/05/03 11:46:50;;;;;;;21.17;19.23;;;25.40;58.60;;;;;;4922497;29;20051;-77
2022/05/03 11:49:17;;;;;;;20.55;18.55;;;25.50;58.40;;;;;;4927276;29;20043;-75
2022/05/03 11:57:31;;;;;;;22.08;19.77;;;25.90;57.40;;;;;;4924366;29;20051;-78
2022/05/03 11:59:58;;;;;;;20.45;18.42;;;26.10;57.30;;;;;;4927292;29;20028;-77
2022/05/03 12:02:32;;;;;;;20.90;18.88;;;26.20;57.00;;;;;;4927880;29;20059;-75
2022/05/03 12:05:16;;;;;;;20.63;18.63;;;26.30;56.50;;;;;;4927105;29;20035;-78
2022/05/03 12:07:57;;;;;;;20.17;18.30;;;26.40;56.30;;;;;;4928817;29;20583;-77
2022/05/03 12:10:30;;;;;;;18.92;17.13;;;26.60;56.00;;;;;;4916429;29;20491;-76
2022/05/03 12:13:09;;;;;;;20.77;18.63;;;26.70;55.70;;;;;;4929210;29;20068;-77
2022/05/03 12:15:46;;;;;;;20.20;18.33;;;26.70;55.30;;;;;;4924030;29;20571;-77
2022/05/03 12:18:19;;;;;;;21.20;19.10;;;26.60;55.10;;;;;;4919630;29;20047;-76
2022/05/03 12:20:57;;;;;;;19.40;17.58;;;26.70;55.10;;;;;;4927096;29;20032;-76
2022/05/03 12:23:36;;;;;;;20.67;17.67;;;26.80;54.90;;;;;;4925533;29;20280;-77
2022/05/03 12:26:18;;;;;;;19.48;17.67;;;26.90;54.80;;;;;;4921295;29;20039;-77
2022/05/03 12:28:58;;;;;;;18.38;16.70;;;27.00;54.50;;;;;;4930723;29;20399;-77
2022/05/03 12:31:30;;;;;;;18.17;16.58;;;27.10;54.40;;;;;;4926512;29;20432;-77
2022/05/03 12:33:58;;;;;;;18.13;16.58;;;27.20;54.30;;;;;;4928155;29;20047;-77
2022/05/03 12:36:34;;;;;;;16.80;15.10;;;27.40;54.30;;;;;;4927481;29;20043;-76
2022/05/03 12:39:08;;;;;;;17.27;15.57;;;27.60;54.20;;;;;;4919825;29;20087;-77
2022/05/03 12:41:35;;;;;;;17.75;15.95;;;27.90;53.90;;;;;;4927597;29;20039;-77
2022/05/03 12:44:01;;;;;;;15.90;14.55;;;28.20;53.60;;;;;;4927073;29;20399;-77
2022/05/03 12:46:30;;;;;;;17.02;15.48;;;28.40;53.30;;;;;;4927245;29;20079;-76
2022/05/03 12:48:57;;;;;;;16.95;15.25;;;28.60;52.80;;;;;;4915219;29;20059;-76
2022/05/03 12:51:26;;;;;;;16.13;14.55;;;28.80;52.50;;;;;;4927260;29;20516;-77
2022/05/03 12:53:53;;;;;;;16.52;14.93;;;29.00;52.20;;;;;;4919695;29;20047;-76
2022/05/03 12:59:04;;;;;;;14.65;13.30;;;29.10;51.90;;;;;;4925789;29;20039;-76
2022/05/03 13:01:30;;;;;;;15.88;13.30;;;29.20;51.70;;;;;;4930428;29;20040;-76
2022/05/03 13:03:56;;;;;;;12.82;11.73;;;29.40;51.80;;;;;;4929099;29;20043;-77
2022/05/03 13:06:22;;;;;;;13.00;12.00;;;29.50;51.60;;;;;;4929352;29;20468;-77
2022/05/03 13:08:50;;;;;;;13.85;12.55;;;29.70;51.40;;;;;;4929564;29;20047;-77
2022/05/03 13:11:17;;;;;;;14.45;13.07;;;29.70;51.30;;;;;;4928413;29;20032;-79
2022/05/03 13:13:43;;;;;;;13.68;12.38;;;29.70;51.10;;;;;;4928568;29;20048;-79
2022/05/03 13:16:09;;;;;;;15.32;13.93;;;29.70;51.10;;;;;;4927740;29;20039;-75
2022/05/03 13:18:35;;;;;;;14.90;13.50;;;29.60;51.00;;;;;;4928204;29;20140;-75
2022/05/03 13:21:02;;;;;;;15.57;14.13;;;29.50;50.90;;;;;;4928173;29;20027;-74
2022/05/03 13:23:29;;;;;;;15.80;14.40;;;29.40;51.00;;;;;;4929159;29;20032;-74
2022/05/03 13:25:55;;;;;;;15.38;13.98;;;29.20;50.80;;;;;;4912865;29;20519;-74
2022/05/03 13:28:20;;;;;;;16.05;14.65;;;29.00;50.90;;;;;;4917463;29;20036;-74
2022/05/03 13:30:47;;;;;;;15.68;14.20;;;28.90;51.00;;;;;;4927814;29;20053;-75